createdAt,value
2019-02-06T00:00:52.486Z,47.88
2019-02-06T00:03:18.481Z,48.08
2019-02-06T00:05:44.542Z,47.95
2019-02-06T00:08:10.624Z,47.77
2019-02-06T00:10:36.631Z,47.88
2019-02-06T00:13:02.722Z,47.88
2019-02-06T00:15:28.752Z,47.77
2019-02-06T00:17:54.805Z,48.00
2019-02-06T00:20:20.894Z,47.89
2019-02-06T00:22:47.157Z,47.98
2019-02-06T00:25:13.252Z,48.01
2019-02-06T00:27:39.329Z,47.84
2019-02-06T00:30:05.376Z,47.94
2019-02-06T00:32:31.377Z,47.87
2019-02-06T00:34:57.463Z,47.84
2019-02-06T00:37:23.513Z,47.87
2019-02-06T00:39:49.489Z,47.89
2019-02-06T00:42:15.864Z,47.98
2019-02-06T00:44:41.863Z,47.91
2019-02-06T00:47:07.868Z,47.94
2019-02-06T00:49:33.912Z,47.95
2019-02-06T00:51:59.975Z,48.00
2019-02-06T00:54:26.079Z,47.90
2019-02-06T00:56:52.159Z,47.94
2019-02-06T00:59:18.149Z,48.06
2019-02-06T01:01:44.556Z,47.98
2019-02-06T01:04:10.575Z,47.89
2019-02-06T01:06:36.563Z,48.11
2019-02-06T01:09:02.560Z,47.91
2019-02-06T01:11:28.728Z,48.06
2019-02-06T01:13:54.810Z,47.90
2019-02-06T01:16:20.956Z,47.87
2019-02-06T01:18:46.943Z,48.12
2019-02-06T01:21:12.944Z,48.03
2019-02-06T01:23:39.579Z,47.84
2019-02-06T01:26:05.629Z,48.06
2019-02-06T01:28:31.758Z,47.95
2019-02-06T01:30:57.815Z,48.05
2019-02-06T01:33:23.820Z,47.97
2019-02-06T01:35:50.372Z,47.97
2019-02-06T01:38:16.588Z,47.96
2019-02-06T01:40:42.689Z,47.99
2019-02-06T01:43:08.739Z,48.20
2019-02-06T01:45:35.113Z,48.11
2019-02-06T01:48:01.204Z,48.01
2019-02-06T01:50:27.256Z,48.03
2019-02-06T01:52:53.251Z,47.93
2019-02-06T01:55:19.225Z,48.17
2019-02-06T01:57:45.211Z,48.06
2019-02-06T02:00:11.220Z,47.97
2019-02-06T02:02:37.201Z,48.20
2019-02-06T02:05:03.201Z,47.99
2019-02-06T02:07:29.665Z,48.14
2019-02-06T02:09:55.744Z,48.23
2019-02-06T02:12:21.722Z,48.01
2019-02-06T02:14:47.706Z,48.13
2019-02-06T02:17:13.795Z,47.96
2019-02-06T02:19:39.787Z,48.04
2019-02-06T02:22:05.777Z,47.99
2019-02-06T02:24:31.784Z,47.94
2019-02-06T02:26:57.763Z,47.92
2019-02-06T02:29:24.057Z,47.41
2019-02-06T02:31:50.020Z,47.59
2019-02-06T02:34:16.068Z,47.83
2019-02-06T02:36:42.054Z,47.87
2019-02-06T02:39:08.086Z,47.85
2019-02-06T02:41:34.098Z,47.82
2019-02-06T02:44:00.167Z,47.82
2019-02-06T02:46:26.166Z,47.75
2019-02-06T02:48:52.623Z,47.83
2019-02-06T02:51:18.645Z,47.83
2019-02-06T02:53:44.677Z,47.82
2019-02-06T02:56:10.676Z,47.74
2019-02-06T02:58:36.655Z,47.81
2019-02-06T03:01:02.632Z,47.84
2019-02-06T03:03:28.729Z,47.76
2019-02-06T03:05:54.712Z,47.73
2019-02-06T03:08:20.740Z,47.79
2019-02-06T03:10:46.725Z,47.81
2019-02-06T03:13:12.715Z,47.78
2019-02-06T03:15:38.717Z,47.78
2019-02-06T03:18:04.706Z,47.83
2019-02-06T03:20:30.690Z,47.82
2019-02-06T03:22:56.671Z,47.80
2019-02-06T03:25:22.685Z,47.80
2019-02-06T03:27:48.734Z,47.84
2019-02-06T03:30:15.168Z,47.81
2019-02-06T03:32:41.223Z,47.79
2019-02-06T03:35:07.298Z,47.83
2019-02-06T03:37:33.284Z,47.81
2019-02-06T03:39:59.315Z,47.79
2019-02-06T03:42:25.360Z,47.78
2019-02-06T03:44:51.399Z,47.81
2019-02-06T03:47:17.447Z,47.87
2019-02-06T03:49:43.511Z,47.85
2019-02-06T03:52:09.914Z,47.79
2019-02-06T03:54:35.925Z,47.90
2019-02-06T03:57:01.913Z,47.86
2019-02-06T03:59:27.975Z,47.88
2019-02-06T04:01:53.971Z,47.87
2019-02-06T04:04:19.975Z,47.87
2019-02-06T04:06:56.456Z,47.92
2019-02-06T04:09:13.780Z,47.92
2019-02-06T04:11:39.768Z,47.88
2019-02-06T04:14:05.831Z,47.92
2019-02-06T04:16:31.847Z,47.90
2019-02-06T04:18:57.880Z,47.84
2019-02-06T04:21:23.898Z,47.82
2019-02-06T04:23:50.033Z,47.83
2019-02-06T04:26:16.083Z,47.89
2019-02-06T04:28:42.071Z,47.91
2019-02-06T04:31:08.094Z,47.84
2019-02-06T04:33:34.661Z,47.94
2019-02-06T04:36:00.665Z,47.93
2019-02-06T04:38:26.658Z,47.89
2019-02-06T04:40:52.636Z,47.85
2019-02-06T04:43:18.694Z,47.93
2019-02-06T04:45:44.731Z,47.89
2019-02-06T04:48:10.819Z,47.96
2019-02-06T04:50:36.795Z,47.92
2019-02-06T04:53:02.794Z,47.96
2019-02-06T04:55:29.223Z,47.97
2019-02-06T04:57:55.225Z,48.01
2019-02-06T05:00:21.393Z,48.02
2019-02-06T05:02:47.604Z,48.01
2019-02-06T05:05:13.783Z,48.05
2019-02-06T05:07:39.999Z,48.02
2019-02-06T05:10:06.049Z,48.06
2019-02-06T05:12:32.144Z,48.08
2019-02-06T05:14:58.609Z,47.95
2019-02-06T05:17:24.608Z,47.93
2019-02-06T05:19:50.645Z,47.98
2019-02-06T05:22:16.732Z,47.93
2019-02-06T05:24:42.779Z,47.97
2019-02-06T05:27:08.777Z,47.93
2019-02-06T05:29:34.852Z,47.92
2019-02-06T05:32:00.985Z,47.97
2019-02-06T05:34:27.136Z,47.99
2019-02-06T05:36:53.600Z,47.97
2019-02-06T05:39:22.751Z,47.97
2019-02-06T05:41:48.873Z,47.97
2019-02-06T05:44:14.923Z,48.01
2019-02-06T05:46:40.926Z,47.99
2019-02-06T05:49:06.926Z,48.01
2019-02-06T05:51:32.933Z,48.03
2019-02-06T05:53:59.026Z,48.01
2019-02-06T05:56:25.196Z,47.95
2019-02-06T05:58:51.737Z,47.97
2019-02-06T06:01:17.940Z,47.96
2019-02-06T06:03:44.011Z,47.98
2019-02-06T06:06:12.119Z,47.96
2019-02-06T06:08:37.864Z,47.98
2019-02-06T06:11:03.931Z,47.88
2019-02-06T06:13:29.937Z,47.75
2019-02-06T06:15:55.996Z,47.82
2019-02-06T06:18:22.223Z,47.82
2019-02-06T06:20:48.533Z,47.84
2019-02-06T06:23:14.522Z,47.80
2019-02-06T06:25:40.581Z,47.64
2019-02-06T06:28:06.579Z,48.58
2019-02-06T06:30:32.661Z,48.24
2019-02-06T06:32:58.712Z,48.00
2019-02-06T06:35:24.805Z,47.91
2019-02-06T06:38:01.337Z,48.03
2019-02-06T06:40:18.635Z,47.98
2019-02-06T06:42:45.030Z,47.95
2019-02-06T06:45:11.034Z,47.94
2019-02-06T06:47:37.178Z,47.93
2019-02-06T06:50:03.159Z,48.00
2019-02-06T06:52:29.179Z,48.30
2019-02-06T06:54:55.291Z,48.22
2019-02-06T06:57:21.280Z,48.07
2019-02-06T06:59:47.261Z,48.34
2019-02-06T07:02:13.630Z,48.86
2019-02-06T07:04:39.688Z,48.79
2019-02-06T07:07:05.682Z,48.30
2019-02-06T07:09:31.675Z,48.60
2019-02-06T07:11:57.812Z,48.41
2019-02-06T07:14:23.875Z,48.26
2019-02-06T07:16:49.885Z,48.11
2019-02-06T07:19:15.904Z,48.07
2019-02-06T07:21:41.925Z,48.09
2019-02-06T07:24:08.370Z,47.99
2019-02-06T07:26:34.383Z,48.00
2019-02-06T07:29:00.415Z,47.89
2019-02-06T07:31:26.522Z,47.97
2019-02-06T07:33:52.578Z,48.38
2019-02-06T07:36:18.688Z,48.07
2019-02-06T07:38:44.734Z,48.04
2019-02-06T07:41:10.774Z,47.97
2019-02-06T07:43:36.770Z,47.88
2019-02-06T07:46:03.063Z,47.85
2019-02-06T07:48:29.211Z,47.88
2019-02-06T07:50:55.210Z,47.83
2019-02-06T07:53:21.295Z,47.81
2019-02-06T07:55:47.289Z,47.81
2019-02-06T07:58:13.284Z,47.73
2019-02-06T08:00:39.269Z,47.99
2019-02-06T08:03:05.258Z,47.92
2019-02-06T08:05:31.366Z,47.72
2019-02-06T08:07:57.514Z,47.69
2019-02-06T08:10:23.575Z,47.67
2019-02-06T08:12:49.559Z,47.76
2019-02-06T08:15:15.578Z,47.67
2019-02-06T08:17:41.669Z,47.66
2019-02-06T08:20:07.659Z,47.78
2019-02-06T08:22:33.635Z,47.70
2019-02-06T08:24:59.699Z,47.76
2019-02-06T08:27:26.533Z,47.68
2019-02-06T08:29:52.756Z,47.71
2019-02-06T08:32:18.767Z,47.75
2019-02-06T08:34:44.814Z,47.77
2019-02-06T08:37:10.797Z,47.77
2019-02-06T08:39:36.858Z,47.75
2019-02-06T08:42:02.977Z,47.81
2019-02-06T08:44:28.954Z,47.76
2019-02-06T08:46:55.419Z,47.76
2019-02-06T08:49:21.398Z,47.74
2019-02-06T08:51:47.391Z,47.75
2019-02-06T08:54:13.376Z,47.73
2019-02-06T08:56:39.381Z,47.72
2019-02-06T08:59:05.363Z,47.63
2019-02-06T09:01:31.368Z,47.73
2019-02-06T09:03:57.431Z,47.79
2019-02-06T09:06:23.432Z,47.66
2019-02-06T09:08:59.405Z,47.65
2019-02-06T09:11:17.303Z,47.69
2019-02-06T09:13:43.279Z,47.69
2019-02-06T09:16:09.321Z,47.67
2019-02-06T09:18:35.302Z,47.61
2019-02-06T09:21:01.321Z,47.71
2019-02-06T09:23:27.494Z,47.75
2019-02-06T09:25:53.499Z,47.70
2019-02-06T09:28:19.501Z,47.63
2019-02-06T09:30:45.761Z,47.67
2019-02-06T09:33:11.813Z,47.68
2019-02-06T09:35:37.957Z,47.76
2019-02-06T09:38:04.027Z,47.63
2019-02-06T09:40:30.020Z,47.82
2019-02-06T09:42:56.026Z,47.77
2019-02-06T09:45:22.076Z,47.71
2019-02-06T09:47:48.160Z,47.65
2019-02-06T09:50:14.150Z,47.68
2019-02-06T09:52:40.567Z,47.70
2019-02-06T09:55:06.633Z,47.74
2019-02-06T09:57:35.365Z,47.66
2019-02-06T10:00:00.381Z,47.75
2019-02-06T10:02:26.378Z,47.73
2019-02-06T10:04:52.381Z,47.73
2019-02-06T10:07:18.426Z,47.72
2019-02-06T10:09:44.476Z,47.68
2019-02-06T10:12:11.931Z,47.80
2019-02-06T10:14:38.167Z,47.84
2019-02-06T10:17:04.156Z,47.83
2019-02-06T10:19:30.240Z,47.77
2019-02-06T10:21:56.293Z,47.79
2019-02-06T10:24:22.306Z,47.82
2019-02-06T10:26:48.370Z,47.81
2019-02-06T10:29:14.391Z,47.79
2019-02-06T10:31:40.461Z,47.74
2019-02-06T10:34:06.735Z,47.84
2019-02-06T10:36:32.717Z,47.79
2019-02-06T10:38:58.699Z,47.61
2019-02-06T10:41:24.721Z,47.70
2019-02-06T10:43:50.730Z,47.82
2019-02-06T10:46:18.308Z,47.81
2019-02-06T10:48:44.486Z,47.74
2019-02-06T10:51:10.472Z,47.76
2019-02-06T10:53:36.867Z,47.85
2019-02-06T10:56:02.920Z,47.85
2019-02-06T10:58:28.936Z,47.78
2019-02-06T11:00:55.018Z,47.78
2019-02-06T11:03:21.104Z,48.03
2019-02-06T11:05:47.136Z,47.91
2019-02-06T11:08:16.213Z,47.84
2019-02-06T11:10:42.559Z,47.86
2019-02-06T11:13:08.532Z,47.81
2019-02-06T11:15:34.859Z,47.88
2019-02-06T11:18:00.943Z,47.79
2019-02-06T11:20:26.965Z,47.69
2019-02-06T11:22:52.980Z,47.67
2019-02-06T11:25:19.039Z,47.63
2019-02-06T11:27:45.105Z,47.52
2019-02-06T11:30:11.087Z,47.30
2019-02-06T11:32:37.099Z,47.45
2019-02-06T11:35:03.567Z,47.43
2019-02-06T11:37:29.610Z,47.56
2019-02-06T11:39:57.957Z,47.51
2019-02-06T11:42:23.358Z,47.45
2019-02-06T11:44:49.383Z,47.29
2019-02-06T11:47:15.639Z,47.25
2019-02-06T11:49:41.724Z,47.21
2019-02-06T11:52:07.709Z,47.27
2019-02-06T11:54:33.716Z,47.24
2019-02-06T11:56:59.750Z,46.98
2019-02-06T11:59:25.827Z,47.12
2019-02-06T12:01:51.807Z,47.15
2019-02-06T12:04:17.975Z,47.13
2019-02-06T12:06:43.969Z,48.21
2019-02-06T12:09:10.197Z,47.22
2019-02-06T12:11:36.195Z,47.05
2019-02-06T12:14:02.276Z,47.02
2019-02-06T12:16:28.791Z,46.99
2019-02-06T12:18:54.958Z,46.79
2019-02-06T12:21:20.962Z,46.85
2019-02-06T12:23:48.034Z,46.87
2019-02-06T12:26:14.042Z,46.91
2019-02-06T12:28:40.059Z,46.89
2019-02-06T12:31:06.053Z,46.90
2019-02-06T12:33:32.118Z,46.84
2019-02-06T12:35:58.184Z,46.98
2019-02-06T12:38:24.677Z,46.94
2019-02-06T12:40:50.774Z,46.95
2019-02-06T12:43:16.839Z,46.92
2019-02-06T12:45:42.837Z,47.02
2019-02-06T12:48:11.620Z,47.09
2019-02-06T12:50:37.636Z,47.11
2019-02-06T12:53:03.630Z,47.15
2019-02-06T12:55:29.655Z,47.23
2019-02-06T12:57:55.709Z,47.18
2019-02-06T13:00:21.692Z,47.10
2019-02-06T13:02:48.049Z,47.19
2019-02-06T13:05:14.052Z,47.17
2019-02-06T13:07:40.060Z,47.28
2019-02-06T13:10:06.064Z,47.26
2019-02-06T13:12:32.146Z,47.12
2019-02-06T13:14:58.124Z,47.27
2019-02-06T13:17:24.132Z,47.29
2019-02-06T13:19:50.116Z,47.30
2019-02-06T13:22:16.538Z,47.31
2019-02-06T13:24:42.853Z,47.27
2019-02-06T13:27:08.880Z,47.35
2019-02-06T13:29:34.960Z,47.41
2019-02-06T13:32:01.043Z,47.47
2019-02-06T13:34:28.657Z,47.36
2019-02-06T13:36:54.752Z,47.36
2019-02-06T13:39:20.801Z,47.42
2019-02-06T13:41:46.782Z,47.47
2019-02-06T13:44:12.776Z,47.31
2019-02-06T13:46:38.929Z,47.43
2019-02-06T13:49:05.020Z,47.53
2019-02-06T13:51:31.053Z,47.49
2019-02-06T13:53:57.066Z,47.48
2019-02-06T13:56:23.106Z,47.37
2019-02-06T13:58:49.136Z,47.48
2019-02-06T14:01:25.267Z,47.58
2019-02-06T14:03:42.881Z,47.54
2019-02-06T14:06:11.359Z,47.49
2019-02-06T14:08:36.957Z,47.70
2019-02-06T14:11:02.937Z,47.62
2019-02-06T14:13:28.948Z,47.66
2019-02-06T14:15:54.995Z,47.76
2019-02-06T14:18:21.039Z,47.89
2019-02-06T14:20:47.067Z,47.89
2019-02-06T14:23:13.107Z,47.94
2019-02-06T14:25:39.566Z,47.82
2019-02-06T14:28:05.706Z,47.76
2019-02-06T14:30:31.703Z,47.85
2019-02-06T14:32:57.778Z,47.72
2019-02-06T14:35:23.842Z,47.93
2019-02-06T14:37:49.899Z,47.83
2019-02-06T14:40:15.895Z,47.60
2019-02-06T14:42:44.928Z,47.71
2019-02-06T14:45:09.650Z,47.57
2019-02-06T14:47:35.752Z,47.26
2019-02-06T14:50:01.760Z,47.46
2019-02-06T14:52:27.891Z,47.45
2019-02-06T14:54:53.895Z,47.35
2019-02-06T14:57:19.972Z,47.38
2019-02-06T14:59:45.992Z,47.39
2019-02-06T15:02:12.061Z,47.68
2019-02-06T15:04:38.469Z,47.36
2019-02-06T15:07:04.496Z,47.33
2019-02-06T15:09:30.477Z,47.34
2019-02-06T15:11:56.773Z,47.34
2019-02-06T15:14:22.797Z,47.31
2019-02-06T15:16:48.931Z,47.32
2019-02-06T15:19:14.920Z,47.32
2019-02-06T15:21:40.919Z,47.22
2019-02-06T15:24:07.230Z,47.25
2019-02-06T15:26:33.354Z,47.19
2019-02-06T15:28:59.362Z,47.22
2019-02-06T15:31:25.378Z,47.08
2019-02-06T15:33:53.416Z,47.89
2019-02-06T15:36:19.257Z,47.81
2019-02-06T15:38:45.244Z,47.40
2019-02-06T15:41:11.272Z,47.26
2019-02-06T15:43:37.612Z,47.33
2019-02-06T15:46:03.741Z,47.51
2019-02-06T15:48:29.834Z,47.39
2019-02-06T15:50:56.943Z,47.45
2019-02-06T15:53:23.254Z,47.53
2019-02-06T15:55:49.304Z,47.61
2019-02-06T15:58:15.414Z,47.54
2019-02-06T16:00:41.470Z,47.65
2019-02-06T16:03:07.552Z,47.36
2019-02-06T16:05:33.584Z,47.45
2019-02-06T16:07:59.576Z,47.62
2019-02-06T16:10:25.652Z,47.54
2019-02-06T16:12:52.648Z,47.72
2019-02-06T16:15:18.653Z,47.56
2019-02-06T16:17:44.638Z,47.57
2019-02-06T16:20:10.744Z,47.56
2019-02-06T16:22:37.088Z,47.62
2019-02-06T16:25:03.115Z,47.59
2019-02-06T16:27:29.119Z,47.55
2019-02-06T16:30:00.395Z,47.66
2019-02-06T16:32:22.897Z,47.71
2019-02-06T16:34:48.906Z,47.63
2019-02-06T16:37:14.979Z,47.48
2019-02-06T16:39:40.996Z,47.79
2019-02-06T16:42:07.310Z,47.83
2019-02-06T16:44:33.484Z,47.77
2019-02-06T16:46:59.563Z,47.76
2019-02-06T16:49:25.633Z,47.83
2019-02-06T16:51:51.637Z,47.89
2019-02-06T16:54:17.704Z,47.97
2019-02-06T16:56:43.799Z,48.00
2019-02-06T16:59:09.780Z,48.13
2019-02-06T17:01:36.185Z,47.90
2019-02-06T17:04:02.170Z,47.76
2019-02-06T17:06:28.180Z,47.80
2019-02-06T17:08:54.180Z,47.71
2019-02-06T17:11:20.156Z,47.73
2019-02-06T17:13:46.179Z,47.72
2019-02-06T17:16:12.179Z,47.84
2019-02-06T17:18:38.299Z,47.79
2019-02-06T17:21:04.658Z,47.51
2019-02-06T17:23:30.727Z,47.70
2019-02-06T17:25:56.954Z,47.77
2019-02-06T17:28:22.932Z,47.86
2019-02-06T17:30:49.036Z,47.86
2019-02-06T17:33:15.039Z,47.77
2019-02-06T17:35:41.056Z,47.81
2019-02-06T17:38:07.095Z,47.91
2019-02-06T17:40:33.402Z,47.92
2019-02-06T17:42:59.388Z,47.86
2019-02-06T17:45:25.442Z,47.90
2019-02-06T17:47:51.453Z,47.86
2019-02-06T17:50:17.490Z,47.85
2019-02-06T17:52:43.688Z,47.88
2019-02-06T17:55:09.790Z,47.84
2019-02-06T17:57:35.775Z,47.84
2019-02-06T18:00:02.160Z,47.87
2019-02-06T18:02:28.235Z,47.92
2019-02-06T18:04:54.301Z,47.84
2019-02-06T18:07:20.410Z,47.86
2019-02-06T18:09:46.458Z,48.03
2019-02-06T18:12:12.442Z,48.05
2019-02-06T18:14:38.458Z,47.80
2019-02-06T18:17:04.605Z,47.75
2019-02-06T18:19:30.981Z,47.88
2019-02-06T18:21:57.061Z,47.94
2019-02-06T18:24:23.064Z,48.07
2019-02-06T18:26:49.154Z,47.93
2019-02-06T18:29:15.209Z,48.10
2019-02-06T18:31:41.397Z,48.00
2019-02-06T18:34:07.511Z,48.07
2019-02-06T18:36:33.522Z,47.99
2019-02-06T18:38:59.637Z,47.95
2019-02-06T18:41:25.829Z,48.06
2019-02-06T18:43:52.436Z,48.00
2019-02-06T18:46:18.521Z,47.92
2019-02-06T18:48:44.578Z,47.97
2019-02-06T18:51:10.584Z,48.04
2019-02-06T18:53:36.608Z,47.96
2019-02-06T18:56:04.718Z,47.99
2019-02-06T18:58:30.462Z,48.09
2019-02-06T19:00:56.684Z,48.10
2019-02-06T19:03:22.840Z,48.08
2019-02-06T19:05:48.854Z,48.12
2019-02-06T19:08:14.938Z,48.06
2019-02-06T19:10:41.013Z,47.79
2019-02-06T19:13:07.502Z,47.98
2019-02-06T19:15:33.615Z,48.04
2019-02-06T19:17:59.724Z,48.17
2019-02-06T19:20:25.824Z,48.07
2019-02-06T19:22:51.885Z,48.22
2019-02-06T19:25:18.016Z,48.09
2019-02-06T19:27:44.057Z,48.07
2019-02-06T19:30:10.100Z,48.01
2019-02-06T19:32:36.169Z,47.97
2019-02-06T19:35:02.175Z,48.04
2019-02-06T19:37:28.664Z,48.07
2019-02-06T19:39:54.713Z,48.03
2019-02-06T19:42:20.774Z,48.07
2019-02-06T19:44:46.824Z,48.08
2019-02-06T19:47:12.877Z,48.08
2019-02-06T19:49:38.966Z,48.18
2019-02-06T19:52:05.236Z,48.28
2019-02-06T19:54:31.349Z,48.16
2019-02-06T19:56:57.494Z,47.78
2019-02-06T19:59:23.567Z,48.12
2019-02-06T20:01:49.791Z,48.22
2019-02-06T20:04:16.252Z,48.47
2019-02-06T20:06:42.223Z,48.54
2019-02-06T20:09:08.354Z,48.62
2019-02-06T20:11:34.898Z,48.58
2019-02-06T20:14:01.038Z,48.75
2019-02-06T20:16:27.120Z,48.52
2019-02-06T20:18:53.223Z,48.44
2019-02-06T20:21:19.249Z,48.39
2019-02-06T20:23:45.284Z,48.40
2019-02-06T20:26:11.377Z,48.43
2019-02-06T20:28:37.882Z,48.41
2019-02-06T20:31:04.263Z,48.38
2019-02-06T20:33:30.373Z,48.36
2019-02-06T20:35:56.409Z,49.08
2019-02-06T20:38:22.499Z,48.37
2019-02-06T20:40:48.751Z,48.38
2019-02-06T20:43:21.860Z,48.16
2019-02-06T20:45:42.551Z,48.61
2019-02-06T20:48:08.767Z,47.30
2019-02-06T20:50:35.162Z,48.66
2019-02-06T20:53:02.525Z,48.41
2019-02-06T20:55:28.571Z,48.32
2019-02-06T20:57:54.707Z,48.34
2019-02-06T21:00:20.844Z,48.18
2019-02-06T21:02:46.892Z,47.84
2019-02-06T21:05:12.969Z,48.40
2019-02-06T21:07:38.978Z,48.25
2019-02-06T21:10:05.045Z,48.32
2019-02-06T21:12:31.127Z,48.34
2019-02-06T21:14:57.349Z,48.37
2019-02-06T21:17:23.362Z,48.30
2019-02-06T21:19:49.351Z,48.33
2019-02-06T21:22:15.353Z,48.36
2019-02-06T21:24:41.343Z,48.46
2019-02-06T21:27:07.433Z,48.46
2019-02-06T21:29:33.432Z,48.46
2019-02-06T21:31:59.412Z,48.53
2019-02-06T21:34:26.683Z,48.53
2019-02-06T21:36:52.672Z,48.52
2019-02-06T21:39:18.727Z,48.50
2019-02-06T21:41:44.799Z,48.57
2019-02-06T21:44:10.885Z,48.47
2019-02-06T21:46:36.881Z,48.64
2019-02-06T21:49:02.896Z,48.55
2019-02-06T21:51:28.903Z,48.65
2019-02-06T21:53:54.932Z,48.56
2019-02-06T21:56:21.314Z,48.59
2019-02-06T21:58:47.314Z,48.52
2019-02-06T22:01:13.329Z,48.72
2019-02-06T22:03:39.507Z,48.67
2019-02-06T22:06:05.605Z,48.81
2019-02-06T22:08:31.777Z,48.69
2019-02-06T22:10:57.777Z,48.85
2019-02-06T22:13:23.965Z,48.76
2019-02-06T22:15:50.337Z,49.32
2019-02-06T22:18:16.353Z,49.16
2019-02-06T22:20:42.340Z,48.89
2019-02-06T22:23:08.370Z,48.76
2019-02-06T22:25:34.435Z,48.86
2019-02-06T22:28:00.516Z,48.81
2019-02-06T22:30:26.552Z,48.92
2019-02-06T22:32:52.696Z,48.79
2019-02-06T22:35:19.068Z,48.95
2019-02-06T22:37:45.148Z,48.95
2019-02-06T22:40:11.173Z,48.92
2019-02-06T22:42:37.190Z,48.98
2019-02-06T22:45:03.331Z,49.07
2019-02-06T22:47:29.332Z,49.00
2019-02-06T22:49:57.483Z,48.99
2019-02-06T22:52:23.388Z,49.10
2019-02-06T22:54:51.108Z,49.12
2019-02-06T22:57:17.171Z,49.24
2019-02-06T22:59:43.203Z,49.13
2019-02-06T23:02:09.278Z,49.11
2019-02-06T23:04:35.475Z,49.24
2019-02-06T23:07:01.532Z,49.12
2019-02-06T23:09:27.605Z,49.07
2019-02-06T23:11:53.691Z,49.04
2019-02-06T23:14:19.839Z,49.04
2019-02-06T23:16:45.930Z,49.09
2019-02-06T23:19:11.913Z,49.06
2019-02-06T23:21:37.913Z,49.04
2019-02-06T23:24:03.895Z,49.12
2019-02-06T23:26:29.900Z,49.11
2019-02-06T23:28:55.945Z,49.22
2019-02-06T23:31:21.957Z,49.25
2019-02-06T23:33:48.002Z,49.14
2019-02-06T23:36:14.000Z,49.10
2019-02-06T23:38:40.004Z,49.29
2019-02-06T23:41:05.983Z,49.27
2019-02-06T23:43:31.958Z,49.30
2019-02-06T23:45:59.000Z,49.38
2019-02-06T23:48:24.970Z,49.30
2019-02-06T23:50:50.967Z,49.36
2019-02-06T23:53:16.981Z,49.33
2019-02-06T23:55:43.310Z,49.35
2019-02-06T23:58:09.449Z,49.29
